Time;durP1;ratioP1;P1;durP2;ratioP2;P2;SDS_P1;SDS_P2;PMS_P1;PMS_P2;Temp;Humidity;BMP_temperature;BMP_pressure;BME280_temperature;BME280_humidity;BME280_pressure;Samples;Min_cycle;Max_cycle;Signal;HPM_P1;HPM_P2
2024/02/14 00:00:13;;;;;;;3.03;1.60;;;;;;;4.95;68.06;97097.38;5036922;28;20132;-79
2024/02/14 00:02:41;;;;;;;3.58;1.90;;;;;;;4.91;67.71;97098.59;5039144;28;20057;-79
2024/02/14 00:05:10;;;;;;;4.40;1.83;;;;;;;4.89;67.85;97100.50;5037850;28;20050;-78
2024/02/14 00:07:38;;;;;;;3.97;1.88;;;;;;;4.88;68.27;97105.84;5037257;28;20076;-80
2024/02/14 00:10:07;;;;;;;5.65;1.77;;;;;;;4.90;68.51;97094.41;5036052;28;20128;-80
2024/02/14 00:12:35;;;;;;;5.50;2.08;;;;;;;4.92;68.14;97108.00;5035437;28;20053;-78
2024/02/14 00:15:05;;;;;;;4.22;2.13;;;;;;;4.91;70.18;97103.78;5035877;28;20049;-78
2024/02/14 00:17:34;;;;;;;5.90;2.53;;;;;;;4.95;69.06;97099.16;5035891;28;20064;-80
2024/02/14 00:20:03;;;;;;;5.47;2.50;;;;;;;4.99;69.11;97104.91;5035856;28;20049;-79
2024/02/14 00:22:30;;;;;;;4.53;2.13;;;;;;;5.03;69.14;97104.50;5035654;28;20087;-78
2024/02/14 00:24:58;;;;;;;5.70;2.30;;;;;;;5.05;68.26;97115.53;5035316;28;20481;-80
2024/02/14 00:27:27;;;;;;;5.80;2.08;;;;;;;5.02;68.46;97107.19;5035396;28;20103;-78
2024/02/14 00:29:54;;;;;;;3.22;2.13;;;;;;;5.02;68.12;97109.78;5035958;28;20053;-80
2024/02/14 00:32:24;;;;;;;3.10;1.88;;;;;;;5.03;68.65;97108.81;5035412;28;20045;-79
2024/02/14 00:34:52;;;;;;;3.97;1.60;;;;;;;5.08;70.35;97119.59;5035317;28;20107;-79
2024/02/14 00:37:20;;;;;;;3.50;2.15;;;;;;;5.16;69.61;97114.56;5035321;28;20045;-78
2024/02/14 00:39:50;;;;;;;4.40;2.65;;;;;;;5.16;68.73;97117.97;5035461;28;20436;-79
2024/02/14 00:42:17;;;;;;;5.65;2.78;;;;;;;5.16;68.25;97106.81;5036293;28;20080;-86
2024/02/14 00:44:45;;;;;;;7.60;2.90;;;;;;;5.18;69.36;97114.41;5037878;28;20049;-83
2024/02/14 00:47:12;;;;;;;7.25;2.40;;;;;;;5.26;72.54;97115.38;5037579;28;20049;-85
2024/02/14 00:49:41;;;;;;;4.80;2.22;;;;;;;5.39;74.20;97122.06;5035947;28;20053;-85
2024/02/14 00:52:09;;;;;;;9.18;2.70;;;;;;;5.45;71.84;97121.53;5035816;28;20057;-80
2024/02/14 00:54:36;;;;;;;5.80;2.20;;;;;;;5.44;70.59;97114.69;5035947;28;20132;-83
2024/02/14 00:57:05;;;;;;;5.78;2.70;;;;;;;5.39;71.68;97115.13;5035920;28;20140;-83
2024/02/14 00:59:32;;;;;;;4.57;2.58;;;;;;;5.39;71.03;97120.28;5036031;28;20049;-82
2024/02/14 01:02:00;;;;;;;5.50;2.92;;;;;;;5.36;70.42;97121.38;5039795;28;20045;-82
2024/02/14 01:04:27;;;;;;;7.40;3.58;;;;;;;5.36;69.85;97118.00;5046056;28;20425;-78
2024/02/14 01:06:56;;;;;;;17.80;4.07;;;;;;;5.32;69.52;97122.59;5034859;28;20057;-79
2024/02/14 01:09:24;;;;;;;5.78;3.38;;;;;;;5.29;68.79;97117.72;5035120;28;20131;-78
2024/02/14 01:11:51;;;;;;;6.20;3.42;;;;;;;5.24;68.56;97119.88;5034117;28;20505;-78
2024/02/14 01:14:19;;;;;;;5.13;2.45;;;;;;;5.17;68.52;97118.78;5034516;28;20099;-77
2024/02/14 01:16:46;;;;;;;6.82;2.92;;;;;;;5.10;68.71;97120.28;5034866;28;20073;-80
2024/02/14 01:19:14;;;;;;;6.03;3.05;;;;;;;5.04;69.12;97119.03;5034730;28;20428;-78
2024/02/14 01:21:42;;;;;;;8.13;2.70;;;;;;;5.02;69.26;97114.97;5034369;28;20137;-77
2024/02/14 01:24:12;;;;;;;6.57;2.53;;;;;;;4.94;69.31;97115.63;5034677;28;20053;-78
2024/02/14 01:26:40;;;;;;;8.57;3.03;;;;;;;4.89;69.02;97110.84;5034574;28;20428;-79
2024/02/14 01:29:07;;;;;;;6.30;3.40;;;;;;;4.85;69.84;97104.31;5034366;28;20464;-78
2024/02/14 01:31:35;;;;;;;9.07;2.90;;;;;;;4.85;69.58;97104.31;5059551;22;20049;-79
2024/02/14 01:34:02;;;;;;;6.75;2.65;;;;;;;4.84;69.49;97110.44;5076474;28;20052;-80
2024/02/14 01:36:30;;;;;;;5.43;2.42;;;;;;;4.85;69.47;97108.66;5076749;28;20424;-80
2024/02/14 01:38:58;;;;;;;6.15;2.88;;;;;;;4.87;71.51;97102.41;5076803;28;20498;-80
2024/02/14 01:41:27;;;;;;;5.55;2.55;;;;;;;4.89;70.64;97105.69;5074693;28;20098;-79
2024/02/14 01:43:55;;;;;;;4.80;2.75;;;;;;;4.88;70.13;97098.06;5055830;28;20057;-79
2024/02/14 01:46:22;;;;;;;5.47;2.75;;;;;;;4.89;70.66;97102.28;5057540;28;20140;-80
2024/02/14 01:48:50;;;;;;;4.63;2.60;;;;;;;4.88;70.39;97091.13;5057295;28;20113;-80
2024/02/14 01:51:21;;;;;;;3.90;2.25;;;;;;;4.88;70.96;97091.13;5056583;28;20071;-79
2024/02/14 01:53:48;;;;;;;6.18;2.33;;;;;;;4.88;70.44;97091.13;5056285;28;20423;-79
2024/02/14 01:56:17;;;;;;;5.00;2.33;;;;;;;4.90;71.12;97091.81;5056306;28;20496;-79
2024/02/14 01:58:47;;;;;;;5.78;2.47;;;;;;;4.86;70.35;97095.63;5056712;28;20139;-79
2024/02/14 02:01:17;;;;;;;4.63;2.42;;;;;;;4.89;72.93;97089.34;5056545;28;20424;-80
2024/02/14 02:03:45;;;;;;;5.32;2.53;;;;;;;4.92;71.43;97092.50;5055347;28;20045;-79
2024/02/14 02:06:14;;;;;;;6.38;2.55;;;;;;;4.89;70.56;97090.16;5055400;28;20075;-79
2024/02/14 02:08:43;;;;;;;7.05;2.92;;;;;;;4.88;71.10;97088.53;5056072;28;20053;-79
2024/02/14 02:11:11;;;;;;;5.82;3.00;;;;;;;4.90;70.41;97086.66;5055935;28;20112;-79
2024/02/14 02:13:39;;;;;;;8.98;3.83;;;;;;;4.89;69.87;97085.00;5056096;28;20055;-79
2024/02/14 02:16:08;;;;;;;8.40;3.35;;;;;;;4.91;69.20;97088.25;5055909;28;20060;-79
2024/02/14 02:18:37;;;;;;;9.02;4.35;;;;;;;4.93;68.96;97086.38;5056521;28;20108;-80
2024/02/14 02:21:06;;;;;;;6.95;3.78;;;;;;;4.94;69.16;97080.25;5056135;28;20136;-80
2024/02/14 02:23:36;;;;;;;5.05;2.72;;;;;;;4.94;68.93;97088.00;5054841;28;20059;-79
2024/02/14 02:26:03;;;;;;;9.25;3.22;;;;;;;4.97;68.73;97086.13;5055213;28;20053;-80
2024/02/14 02:28:31;;;;;;;4.18;2.78;;;;;;;4.99;69.29;97079.84;5065510;28;20143;-79
2024/02/14 02:30:59;;;;;;;4.68;2.28;;;;;;;5.04;69.27;97079.44;5057704;28;20132;-79
2024/02/14 02:33:27;;;;;;;6.70;3.08;;;;;;;5.07;68.74;97082.59;5071196;28;20052;-79
2024/02/14 02:35:55;;;;;;;7.72;3.47;;;;;;;5.12;69.31;97080.41;5074674;28;20033;-80
2024/02/14 02:38:23;;;;;;;6.35;3.38;;;;;;;5.16;68.68;97075.78;5062805;28;20048;-82
2024/02/14 02:40:52;;;;;;;7.35;3.20;;;;;;;5.16;68.42;97080.97;5066575;28;20052;-81
2024/02/14 02:43:19;;;;;;;7.00;2.80;;;;;;;5.16;68.12;97079.19;5068040;28;20053;-81
2024/02/14 02:45:47;;;;;;;5.60;2.30;;;;;;;5.20;68.25;97079.72;5065898;28;20060;-81
2024/02/14 02:48:14;;;;;;;5.15;2.47;;;;;;;5.24;68.05;97080.25;5062771;28;20467;-81
2024/02/14 02:50:44;;;;;;;4.18;2.30;;;;;;;5.28;67.95;97089.38;5065301;28;20109;-81
2024/02/14 02:53:12;;;;;;;6.85;2.72;;;;;;;5.33;67.73;97097.53;5064867;28;20052;-82
2024/02/14 02:55:40;;;;;;;6.07;2.10;;;;;;;5.42;68.44;97098.50;5063525;28;20045;-82
2024/02/14 02:58:08;;;;;;;5.55;2.50;;;;;;;5.45;67.54;97101.63;5060270;28;20059;-80
2024/02/14 03:00:36;;;;;;;7.45;2.60;;;;;;;5.46;67.54;97100.66;5067987;28;20041;-80
2024/02/14 03:03:08;;;;;;;4.72;2.75;;;;;;;5.49;67.65;97097.00;5067483;28;20529;-79
2024/02/14 03:05:36;;;;;;;4.70;2.70;;;;;;;5.50;68.02;97094.28;5060460;28;20049;-79
2024/02/14 03:08:04;;;;;;;7.00;2.80;;;;;;;5.52;68.06;97094.94;5058750;28;20049;-79
2024/02/14 03:10:32;;;;;;;7.15;2.55;;;;;;;5.55;67.73;97096.44;5056259;28;20052;-79
2024/02/14 03:12:59;;;;;;;3.65;2.33;;;;;;;5.56;67.23;97092.91;5055327;28;20083;-80
2024/02/14 03:15:28;;;;;;;8.07;2.80;;;;;;;5.57;67.05;97090.19;5054416;28;20521;-80
2024/02/14 03:17:56;;;;;;;6.88;2.28;;;;;;;5.58;67.18;97083.25;5055016;28;20059;-80
2024/02/14 03:20:24;;;;;;;6.38;2.55;;;;;;;5.59;67.08;97082.28;5054483;28;20132;-80
2024/02/14 03:22:53;;;;;;;4.35;2.10;;;;;;;5.58;66.71;97078.88;5054190;28;20099;-79
2024/02/14 03:25:21;;;;;;;4.85;2.55;;;;;;;5.56;66.66;97067.84;5054459;28;20045;-80
2024/02/14 03:27:52;;;;;;;5.57;2.15;;;;;;;5.55;67.22;97075.75;5054461;28;20068;-79
2024/02/14 03:30:20;;;;;;;7.43;2.03;;;;;;;5.53;66.64;97069.88;5054602;28;20508;-80
2024/02/14 03:32:50;;;;;;;4.78;2.20;;;;;;;5.51;66.89;97069.19;5054333;28;20080;-80
2024/02/14 03:35:19;;;;;;;3.85;1.80;;;;;;;5.49;66.83;97076.31;5054674;28;20132;-80
2024/02/14 03:37:48;;;;;;;8.02;2.03;;;;;;;5.48;67.15;97072.06;5054084;28;20603;-79
2024/02/14 03:40:16;;;;;;;3.83;1.80;;;;;;;5.54;68.71;97068.94;5054187;28;20056;-79
2024/02/14 03:42:44;;;;;;;4.82;2.25;;;;;;;5.57;67.63;97079.00;5053391;28;20123;-80
2024/02/14 03:45:11;;;;;;;4.20;2.13;;;;;;;5.58;67.24;97072.91;5054663;28;20053;-80
2024/02/14 03:47:41;;;;;;;7.13;2.58;;;;;;;5.62;66.84;97079.44;5054919;28;20049;-79
2024/02/14 03:50:11;;;;;;;7.40;1.95;;;;;;;5.66;68.59;97073.00;5054578;28;20049;-79
2024/02/14 03:52:39;;;;;;;7.45;2.33;;;;;;;5.70;67.26;97069.16;5054241;28;20057;-79
2024/02/14 03:55:08;;;;;;;4.85;2.35;;;;;;;5.71;67.25;97072.59;5053858;28;20460;-79
2024/02/14 03:57:38;;;;;;;3.75;1.92;;;;;;;5.70;66.62;97073.53;5054470;28;20067;-79
2024/02/14 04:00:10;;;;;;;4.72;2.90;;;;;;;5.68;66.42;97065.91;5054418;28;20049;-79
2024/02/14 04:02:38;;;;;;;7.53;3.35;;;;;;;5.62;66.43;97045.78;5054065;28;20169;-79
2024/02/14 04:05:08;;;;;;;7.75;3.65;;;;;;;5.53;66.53;97044.84;5053750;28;20139;-79
2024/02/14 04:07:38;;;;;;;8.93;3.20;;;;;;;5.46;66.60;97053.28;5053947;28;20094;-79
2024/02/14 04:10:06;;;;;;;6.57;3.15;;;;;;;5.43;66.58;97058.75;5054695;28;20103;-79
2024/02/14 04:12:34;;;;;;;5.65;2.85;;;;;;;5.42;67.67;97060.50;5054399;28;20048;-80
2024/02/14 04:15:02;;;;;;;9.02;2.60;;;;;;;5.44;66.86;97068.13;5054550;28;20064;-79
2024/02/14 04:17:29;;;;;;;4.15;2.05;;;;;;;5.42;66.66;97070.03;5055240;28;20048;-80
2024/02/14 04:19:57;;;;;;;3.70;1.85;;;;;;;5.40;66.68;97077.97;5054604;28;20055;-80
2024/02/14 04:22:25;;;;;;;5.35;2.28;;;;;;;5.41;66.86;97082.16;5053880;28;20049;-79
2024/02/14 04:24:54;;;;;;;4.45;2.10;;;;;;;5.45;66.88;97095.66;5054247;28;20393;-80
2024/02/14 04:27:21;;;;;;;8.77;2.58;;;;;;;5.47;66.99;97098.91;5054350;28;20453;-80
2024/02/14 04:29:49;;;;;;;4.88;2.72;;;;;;;5.48;67.19;97100.53;5054070;28;20136;-80
2024/02/14 04:32:17;;;;;;;5.03;2.03;;;;;;;5.51;67.44;97106.28;5053801;28;20049;-80
2024/02/14 04:34:44;;;;;;;3.85;2.22;;;;;;;5.56;67.87;97113.63;5053709;28;20483;-79
2024/02/14 04:37:13;;;;;;;3.55;2.00;;;;;;;5.57;67.43;97108.31;5054275;28;20045;-80
2024/02/14 04:39:42;;;;;;;4.75;2.22;;;;;;;5.54;66.75;97105.97;5054147;28;20103;-80
2024/02/14 04:42:11;;;;;;;9.20;2.85;;;;;;;5.52;66.85;97102.72;5052799;28;20579;-80
2024/02/14 04:44:39;;;;;;;6.10;2.20;;;;;;;5.52;67.02;97110.47;5052978;28;20057;-80
2024/02/14 04:47:09;;;;;;;4.88;2.30;;;;;;;5.56;67.13;97105.84;5056450;28;20459;-79
2024/02/14 04:49:37;;;;;;;6.80;2.70;;;;;;;5.56;66.71;97098.09;5057509;28;20114;-80
2024/02/14 04:52:05;;;;;;;3.42;2.08;;;;;;;5.57;67.59;97095.38;5057267;28;20087;-79
2024/02/14 04:54:32;;;;;;;3.17;2.20;;;;;;;5.61;67.55;97095.91;5057029;28;20048;-79
2024/02/14 04:57:00;;;;;;;5.40;2.63;;;;;;;5.63;67.14;97101.75;5056746;28;20581;-80
2024/02/14 04:59:31;;;;;;;10.23;3.20;;;;;;;5.63;67.00;97099.16;5056849;28;20053;-79
2024/02/14 05:02:00;;;;;;;5.38;3.25;;;;;;;5.63;66.35;97094.00;5056722;28;20040;-80
2024/02/14 05:04:27;;;;;;;4.47;2.88;;;;;;;5.60;66.53;97083.09;5056627;28;20478;-79
2024/02/14 05:06:55;;;;;;;4.20;2.42;;;;;;;5.59;66.53;97082.28;5056638;28;20052;-80
2024/02/14 05:09:26;;;;;;;6.22;3.20;;;;;;;5.59;66.34;97087.44;5056647;28;20060;-79
2024/02/14 05:11:53;;;;;;;7.53;3.47;;;;;;;5.56;66.02;97083.38;5056465;28;20447;-79
2024/02/14 05:14:21;;;;;;;3.20;2.50;;;;;;;5.52;66.04;97087.19;5056493;28;20071;-80
2024/02/14 05:16:50;;;;;;;6.28;2.60;;;;;;;5.47;66.13;97078.22;5056347;28;20056;-80
2024/02/14 05:19:18;;;;;;;3.72;2.30;;;;;;;5.43;66.36;97075.09;5056248;28;20433;-80
2024/02/14 05:21:46;;;;;;;3.78;2.10;;;;;;;5.39;66.22;97067.75;5056137;28;20053;-80
2024/02/14 05:24:14;;;;;;;2.88;2.10;;;;;;;5.39;66.43;97075.50;5055947;28;20487;-80
2024/02/14 05:26:42;;;;;;;6.22;2.85;;;;;;;5.40;66.46;97066.78;5055687;28;20061;-80
2024/02/14 05:29:09;;;;;;;10.30;2.65;;;;;;;5.39;66.43;97067.75;5056117;28;20041;-80
2024/02/14 05:31:45;;;;;;;3.53;2.85;;;;;;;5.40;66.82;97071.94;5055674;28;20110;-80
2024/02/14 05:34:14;;;;;;;5.00;2.53;;;;;;;5.40;66.80;97072.78;5055595;28;20045;-80
2024/02/14 05:36:45;;;;;;;4.95;3.03;;;;;;;5.40;66.60;97083.13;5055516;28;20098;-80
2024/02/14 05:39:14;;;;;;;4.72;2.67;;;;;;;5.41;66.82;97089.13;5055136;28;20420;-80
2024/02/14 05:41:41;;;;;;;6.90;2.33;;;;;;;5.43;66.66;97097.56;5055377;28;20095;-80
2024/02/14 05:44:09;;;;;;;8.05;2.72;;;;;;;5.44;66.69;97099.19;5054468;28;20049;-80
2024/02/14 05:46:36;;;;;;;2.75;1.90;;;;;;;5.46;66.41;97112.78;5055284;28;20132;-80
2024/02/14 05:49:04;;;;;;;7.97;3.67;;;;;;;5.52;66.55;97110.47;5055829;28;20056;-80
2024/02/14 05:51:33;;;;;;;16.98;8.18;;;;;;;5.62;66.22;97120.00;5075698;28;20037;-80
2024/02/14 05:54:01;;;;;;;12.45;5.47;;;;;;;5.69;66.87;97121.91;5076506;28;20080;-80
2024/02/14 05:56:28;;;;;;;7.30;3.50;;;;;;;5.77;66.56;97124.63;5077131;28;20040;-80
2024/02/14 05:58:56;;;;;;;5.30;3.15;;;;;;;5.86;66.44;97129.91;5071424;28;20059;-79
2024/02/14 06:01:23;;;;;;;7.05;2.63;;;;;;;5.92;65.81;97129.34;5053029;28;20136;-80
2024/02/14 06:03:51;;;;;;;5.22;1.90;;;;;;;5.95;65.51;97129.13;5042762;28;20133;-79
2024/02/14 06:06:19;;;;;;;8.10;2.08;;;;;;;5.98;65.43;97131.44;5037174;28;20049;-80
2024/02/14 06:08:48;;;;;;;5.35;2.50;;;;;;;5.98;65.60;97136.59;5049026;28;20099;-78
2024/02/14 06:11:16;;;;;;;3.28;2.28;;;;;;;5.98;65.09;97126.25;5063426;28;20053;-80
2024/02/14 06:13:44;;;;;;;6.15;2.60;;;;;;;5.98;65.13;97137.41;5063760;28;20044;-79
2024/02/14 06:16:12;;;;;;;5.35;2.60;;;;;;;5.98;65.03;97126.25;5072095;28;20041;-79
2024/02/14 06:18:40;;;;;;;5.38;2.92;;;;;;;5.98;65.11;97131.44;5048434;28;20460;-80
2024/02/14 06:21:08;;;;;;;4.75;2.90;;;;;;;5.97;64.99;97128.03;5047671;28;20147;-80
2024/02/14 06:23:36;;;;;;;5.55;2.50;;;;;;;5.94;64.91;97127.44;5054412;28;20059;-80
2024/02/14 06:26:06;;;;;;;3.15;2.13;;;;;;;5.95;64.81;97129.13;5042918;28;20057;-79
2024/02/14 06:28:39;;;;;;;9.05;2.65;;;;;;;5.96;64.74;97126.38;5051284;28;20037;-79
2024/02/14 06:31:07;;;;;;;2.58;2.00;;;;;;;5.97;64.54;97112.50;5042293;28;20578;-79
2024/02/14 06:33:34;;;;;;;8.23;2.60;;;;;;;5.96;64.48;97116.03;5053220;28;20045;-79
2024/02/14 06:36:03;;;;;;;4.50;2.33;;;;;;;5.96;64.50;97107.44;5038872;28;20111;-80
2024/02/14 06:38:32;;;;;;;6.80;2.25;;;;;;;5.98;64.76;97110.72;5034625;28;20445;-78
2024/02/14 06:41:00;;;;;;;5.32;2.42;;;;;;;5.98;64.50;97108.13;5034130;28;20049;-79
2024/02/14 06:43:29;;;;;;;5.07;2.08;;;;;;;6.00;64.84;97113.97;5034983;28;20138;-79
2024/02/14 06:45:57;;;;;;;5.13;2.55;;;;;;;6.02;64.87;97104.31;5053519;28;20110;-80
2024/02/14 06:48:24;;;;;;;5.68;2.65;;;;;;;6.05;64.47;97118.75;5055595;28;20059;-79
2024/02/14 06:50:53;;;;;;;6.40;2.40;;;;;;;6.10;66.87;97113.94;5050723;28;20053;-80
2024/02/14 06:59:07;;;;;;;6.97;2.55;;;;;;;6.18;64.42;97107.09;5386686;23;20058;-81
2024/02/14 07:12:32;;;;;;;4.80;2.03;;;;;;;6.29;64.29;97108.69;5718375;23;20451;-81
2024/02/14 07:15:04;;;;;;;3.75;2.15;;;;;;;6.29;64.06;97121.66;4972829;29;20083;-81
2024/02/14 07:17:32;;;;;;;4.80;2.60;;;;;;;6.26;64.20;97126.31;4973061;28;20047;-80
2024/02/14 07:20:00;;;;;;;6.28;3.08;;;;;;;6.28;64.49;97132.19;4973828;29;20075;-81
2024/02/14 07:22:30;;;;;;;4.82;3.55;;;;;;;6.27;64.38;97133.13;4969525;29;20070;-81
2024/02/14 07:24:58;;;;;;;6.07;3.90;;;;;;;6.28;64.31;97135.56;4967961;29;20055;-82
2024/02/14 07:27:26;;;;;;;4.78;3.53;;;;;;;6.34;63.97;97140.19;4958913;29;20051;-82
2024/02/14 07:29:55;;;;;;;5.93;3.38;;;;;;;6.39;64.06;97147.53;4955943;29;20068;-81
2024/02/14 07:32:24;;;;;;;6.80;3.38;;;;;;;6.44;63.80;97144.53;4968227;29;20130;-81
2024/02/14 07:34:52;;;;;;;8.18;4.45;;;;;;;6.48;64.02;97140.69;4966041;29;20086;-81
2024/02/14 07:37:20;;;;;;;8.95;3.97;;;;;;;6.53;63.60;97131.50;4970091;28;20067;-81
2024/02/14 07:39:48;;;;;;;6.05;2.78;;;;;;;6.55;63.62;97137.38;4963664;29;20043;-81
2024/02/14 07:42:16;;;;;;;8.15;2.80;;;;;;;6.58;63.51;97144.88;4957726;29;20075;-81
2024/02/14 07:44:44;;;;;;;4.70;2.50;;;;;;;6.62;63.75;97142.00;4960218;28;20115;-81
2024/02/14 07:47:15;;;;;;;4.15;2.17;;;;;;;6.68;63.64;97146.59;4977873;28;20027;-81
2024/02/14 07:49:47;;;;;;;5.38;2.60;;;;;;;6.68;63.47;97156.97;4979247;28;20043;-82
2024/02/14 07:55:02;;;;;;;4.45;2.42;;;;;;;6.72;63.26;97158.31;5331289;23;19974;-80
2024/02/14 07:57:29;;;;;;;8.32;2.92;;;;;;;6.69;63.33;97161.19;4940805;29;20066;-79
2024/02/14 07:59:57;;;;;;;3.35;2.28;;;;;;;6.68;63.17;97156.97;4942317;29;20078;-80
2024/02/14 08:02:27;;;;;;;5.22;2.30;;;;;;;6.66;63.40;97158.91;4944897;29;20055;-81
2024/02/14 08:04:56;;;;;;;5.03;2.08;;;;;;;6.63;63.57;97164.38;4947249;29;20138;-80
2024/02/14 08:07:24;;;;;;;6.95;2.15;;;;;;;6.63;63.73;97164.38;4945918;29;20055;-80
2024/02/14 08:09:51;;;;;;;3.83;2.03;;;;;;;6.64;63.40;97158.22;4934963;29;20079;-80
2024/02/14 08:12:19;;;;;;;5.22;2.00;;;;;;;6.65;63.90;97163.28;4940570;29;20079;-80
2024/02/14 08:14:47;;;;;;;3.05;2.17;;;;;;;6.69;63.63;97167.22;4928766;29;20091;-80
2024/02/14 08:17:18;;;;;;;5.53;2.80;;;;;;;6.73;63.06;97165.13;4938857;29;20050;-80
2024/02/14 08:19:46;;;;;;;9.82;3.78;;;;;;;6.75;63.14;97171.00;4937066;29;20071;-80
2024/02/14 08:22:15;;;;;;;6.28;3.65;;;;;;;6.75;63.07;97161.44;4940554;29;20094;-80
2024/02/14 08:24:42;;;;;;;7.22;3.33;;;;;;;6.80;63.29;97174.00;4934096;29;20138;-80
2024/02/14 08:27:10;;;;;;;6.25;3.60;;;;;;;6.82;63.23;97164.25;4938972;29;20500;-80
2024/02/14 08:29:38;;;;;;;5.78;3.08;;;;;;;6.85;63.16;97171.78;4935904;29;20143;-80
2024/02/14 08:32:06;;;;;;;9.20;4.68;;;;;;;6.86;63.08;97175.16;4939014;29;20508;-80
2024/02/14 08:34:33;;;;;;;9.07;4.18;;;;;;;6.87;62.88;97176.81;4939951;29;20115;-80
2024/02/14 08:37:01;;;;;;;7.25;3.45;;;;;;;6.89;63.28;97183.50;4939920;29;20122;-81
2024/02/14 08:39:31;;;;;;;10.20;4.57;;;;;;;6.94;63.06;97188.25;4939896;29;20556;-80
2024/02/14 08:42:01;;;;;;;9.27;5.38;;;;;;;6.98;62.94;97187.00;4940029;29;20054;-80
2024/02/14 08:44:29;;;;;;;7.88;3.33;;;;;;;7.01;63.39;97178.91;4939293;29;20051;-80
2024/02/14 08:46:57;;;;;;;6.32;2.85;;;;;;;7.04;63.30;97185.59;4939038;29;20075;-80
2024/02/14 08:49:24;;;;;;;7.25;2.80;;;;;;;7.12;63.30;97180.50;4939696;29;20067;-80
2024/02/14 08:51:52;;;;;;;6.30;3.30;;;;;;;7.25;63.17;97191.34;4938934;29;20055;-80
2024/02/14 08:54:21;;;;;;;6.78;2.72;;;;;;;7.38;63.00;97185.78;4938714;29;20479;-80
2024/02/14 08:56:52;;;;;;;4.75;2.70;;;;;;;7.43;62.98;97181.81;4938635;29;20530;-80
2024/02/14 08:59:20;;;;;;;8.43;3.58;;;;;;;7.48;62.88;97189.16;4939020;29;20083;-80
2024/02/14 09:01:48;;;;;;;5.75;3.05;;;;;;;7.54;62.79;97190.31;4940170;29;20071;-80
2024/02/14 09:04:15;;;;;;;3.42;2.55;;;;;;;7.60;62.72;97184.53;4942230;29;20055;-80
2024/02/14 09:06:43;;;;;;;3.40;2.20;;;;;;;7.65;62.69;97182.31;4939454;29;20537;-78
2024/02/14 09:09:11;;;;;;;6.72;3.38;;;;;;;7.69;62.70;97180.25;4938997;29;20055;-79
2024/02/14 09:11:40;;;;;;;7.55;2.67;;;;;;;7.75;62.49;97175.25;4938567;29;20077;-80
2024/02/14 09:14:10;;;;;;;7.25;2.65;;;;;;;7.85;62.95;97172.59;4937685;29;20050;-79
2024/02/14 09:16:38;;;;;;;5.57;2.95;;;;;;;7.91;62.43;97169.38;4938299;29;20063;-80
2024/02/14 09:19:07;;;;;;;7.55;3.08;;;;;;;8.02;62.25;97173.50;4938073;29;20134;-80
2024/02/14 09:21:35;;;;;;;8.25;3.58;;;;;;;8.17;62.00;97166.81;4938716;29;20047;-80
2024/02/14 09:24:03;;;;;;;5.85;2.63;;;;;;;8.34;61.57;97172.13;4937891;29;20047;-80
2024/02/14 09:26:31;;;;;;;3.55;2.13;;;;;;;8.46;61.32;97176.09;4938215;29;20081;-80
2024/02/14 09:28:58;;;;;;;6.50;2.60;;;;;;;8.53;61.14;97177.13;4938140;29;20140;-80
2024/02/14 09:31:27;;;;;;;6.10;2.40;;;;;;;8.61;60.53;97182.34;4937922;29;20051;-80
2024/02/14 09:33:57;;;;;;;6.60;2.40;;;;;;;8.73;62.36;97179.50;4941860;29;20103;-80
2024/02/14 09:36:26;;;;;;;4.30;2.72;;;;;;;8.82;61.16;97183.78;4943003;29;20054;-80
2024/02/14 09:38:54;;;;;;;4.47;2.70;;;;;;;8.86;62.16;97187.69;4942555;29;20052;-80
2024/02/14 09:41:26;;;;;;;4.32;2.90;;;;;;;8.92;64.65;97194.03;4940231;29;20051;-80
2024/02/14 09:43:54;;;;;;;4.77;2.53;;;;;;;8.98;64.41;97191.63;4937489;29;20517;-79
2024/02/14 09:46:24;;;;;;;13.75;3.08;;;;;;;9.04;62.71;97195.41;4937231;29;20423;-79
2024/02/14 09:48:55;;;;;;;7.50;3.13;;;;;;;9.06;61.55;97193.47;4937553;29;20058;-80
2024/02/14 09:51:25;;;;;;;6.72;3.05;;;;;;;9.10;65.08;97189.56;4937487;29;20087;-80
2024/02/14 09:53:55;;;;;;;8.13;2.88;;;;;;;9.14;62.16;97192.66;4937919;29;20048;-80
2024/02/14 09:56:23;;;;;;;5.53;2.53;;;;;;;9.20;62.39;97192.03;4938852;29;20107;-80
2024/02/14 09:58:56;;;;;;;7.32;3.00;;;;;;;9.27;63.52;97200.81;4944840;29;20143;-81
2024/02/14 10:01:24;;;;;;;5.50;1.88;;;;;;;9.37;63.47;97201.50;4936611;29;20487;-78
2024/02/14 10:03:52;;;;;;;2.38;1.23;;;;;;;9.45;62.58;97198.13;4936670;29;20054;-78
2024/02/14 10:06:21;;;;;;;2.25;1.10;;;;;;;9.51;62.94;97196.66;4937172;29;20138;-78
2024/02/14 10:08:50;;;;;;;1.60;1.25;;;;;;;9.58;61.97;97195.06;4937456;29;20488;-78
2024/02/14 10:11:31;;;;;;;4.47;1.20;;;;;;;9.68;61.54;97191.31;4919545;29;20489;-78
2024/02/14 10:14:02;;;;;;;7.18;1.52;;;;;;;9.77;62.13;97196.53;4920055;29;20090;-78
2024/02/14 10:16:30;;;;;;;2.30;1.20;;;;;;;9.79;60.92;97195.38;4925237;29;20059;-78
2024/02/14 10:18:57;;;;;;;2.85;1.20;;;;;;;9.84;62.90;97193.13;4934351;29;20074;-77
2024/02/14 10:21:28;;;;;;;1.40;1.30;;;;;;;9.88;63.26;97199.66;4936936;29;20063;-78
2024/02/14 10:23:57;;;;;;;1.98;1.48;;;;;;;9.93;63.45;97193.94;4936759;29;20249;-78
2024/02/14 10:26:25;;;;;;;5.15;1.45;;;;;;;10.00;62.29;97196.72;4935881;29;20103;-77
2024/02/14 10:28:53;;;;;;;1.95;1.13;;;;;;;10.07;62.74;97198.50;4936423;29;20055;-77
2024/02/14 10:31:21;;;;;;;3.22;1.50;;;;;;;10.13;62.42;97202.25;4936777;29;20130;-78
2024/02/14 10:33:48;;;;;;;2.05;1.40;;;;;;;10.20;61.90;97198.00;4936367;29;20508;-78
2024/02/14 10:36:18;;;;;;;2.50;1.50;;;;;;;10.33;61.96;97196.72;4936161;29;20051;-78
2024/02/14 10:38:49;;;;;;;1.90;1.35;;;;;;;10.48;63.36;97198.47;4936170;29;20088;-78
2024/02/14 10:41:17;;;;;;;3.95;1.35;;;;;;;10.70;60.72;97194.34;4935943;29;20520;-78
2024/02/14 10:43:45;;;;;;;3.90;1.40;;;;;;;10.92;61.75;97194.59;4946131;28;20102;-79
2024/02/14 10:46:21;;;;;;;3.72;1.85;;;;;;;11.09;59.51;97182.31;4956847;29;20036;-77
2024/02/14 10:48:49;;;;;;;3.92;1.73;;;;;;;11.37;60.95;97173.97;4957061;29;20079;-79
2024/02/14 10:51:19;;;;;;;3.97;1.95;;;;;;;11.69;58.88;97172.94;4956682;29;20054;-78
2024/02/14 10:53:50;;;;;;;2.47;1.42;;;;;;;12.07;57.98;97163.38;4949682;29;20424;-77
2024/02/14 10:56:19;;;;;;;3.17;1.65;;;;;;;12.47;57.99;97165.78;4939494;29;20079;-79
2024/02/14 10:58:49;;;;;;;3.65;1.85;;;;;;;12.85;57.04;97157.81;4936883;29;20543;-78
2024/02/14 11:01:17;;;;;;;3.88;1.52;;;;;;;13.27;57.41;97158.91;4935169;29;20468;-78
2024/02/14 11:03:45;;;;;;;1.73;1.23;;;;;;;13.69;55.51;97165.25;4935771;29;20052;-77
2024/02/14 11:06:16;;;;;;;3.10;1.45;;;;;;;14.11;53.94;97163.56;4941370;29;20048;-79
2024/02/14 11:08:57;;;;;;;3.50;1.40;;;;;;;14.47;51.56;97168.66;4948309;29;20058;-79
2024/02/14 11:11:25;;;;;;;3.38;1.48;;;;;;;14.69;52.53;97172.06;4948969;29;20070;-79
2024/02/14 11:13:54;;;;;;;3.85;2.15;;;;;;;14.84;52.68;97167.47;4940889;29;20090;-79
2024/02/14 11:16:27;;;;;;;2.38;1.90;;;;;;;14.98;51.45;97180.72;4938131;29;20432;-78
2024/02/14 11:19:07;;;;;;;3.90;1.23;;;;;;;15.10;50.29;97173.06;4921450;29;20065;-78
2024/02/14 11:21:37;;;;;;;2.20;1.42;;;;;;;15.12;52.04;97160.53;4931440;29;20193;-78
2024/02/14 11:24:11;;;;;;;1.95;1.38;;;;;;;15.11;49.53;97159.75;4934816;29;20071;-78
2024/02/14 11:26:48;;;;;;;4.50;2.15;;;;;;;15.16;49.86;97173.09;4933552;29;20130;-79
2024/02/14 11:29:17;;;;;;;3.00;1.75;;;;;;;15.19;50.10;97167.44;4935035;29;20512;-80
2024/02/14 11:31:50;;;;;;;;;;;;;;;15.28;50.95;97175.16;4930903;29;20048;-80
2024/02/14 11:34:18;;;;;;;6.47;2.92;;;;;;;15.25;51.21;97176.34;4938715;29;20387;-77
2024/02/14 11:37:15;;;;;;;21.42;5.50;;;;;;;15.19;52.07;97177.13;4941685;28;20514;-81
2024/02/14 11:39:47;;;;;;;1.98;1.10;;;;;;;15.21;51.11;97185.63;4936768;29;20496;-79
2024/02/14 11:42:15;;;;;;;5.13;1.40;;;;;;;15.24;51.02;97175.56;4935600;29;20642;-78
2024/02/14 11:44:43;;;;;;;2.67;1.40;;;;;;;15.29;51.11;97166.28;4934866;29;20059;-79
2024/02/14 11:47:11;;;;;;;1.55;0.95;;;;;;;15.29;52.00;97166.28;4934973;29;20512;-80
2024/02/14 11:49:39;;;;;;;2.42;1.40;;;;;;;15.29;51.87;97166.28;4935309;29;20151;-77
2024/02/14 11:52:10;;;;;;;3.03;1.40;;;;;;;15.24;53.12;97165.03;4934554;29;20083;-78
2024/02/14 11:54:38;;;;;;;3.42;1.00;;;;;;;15.18;53.54;97154.50;4935997;29;20138;-80
2024/02/14 11:57:08;;;;;;;2.00;0.80;;;;;;;15.09;52.39;97156.50;4940997;29;20051;-77
2024/02/14 11:59:35;;;;;;;1.35;1.00;;;;;;;15.02;53.20;97168.78;4942016;29;20555;-80
2024/02/14 12:02:04;;;;;;;1.73;1.10;;;;;;;14.99;52.99;97166.56;4943080;29;20056;-80
2024/02/14 12:04:33;;;;;;;2.08;0.80;;;;;;;14.99;53.28;97156.03;4943835;29;20134;-80
2024/02/14 12:07:01;;;;;;;2.38;1.27;;;;;;;14.96;51.88;97149.38;4947820;29;20123;-80